createdAt,value
2022-10-25T00:01:29.728Z,6.97
2022-10-25T00:03:57.954Z,6.93
2022-10-25T00:06:25.823Z,6.67
2022-10-25T00:08:53.617Z,6.57
2022-10-25T00:11:25.678Z,6.80
2022-10-25T00:13:55.707Z,9.53
2022-10-25T00:16:29.954Z,43.37
2022-10-25T00:18:57.403Z,48.53
2022-10-25T00:21:25.115Z,49.17
2022-10-25T00:23:53.553Z,56.10
2022-10-25T00:26:21.389Z,53.87
2022-10-25T00:28:49.233Z,50.47
2022-10-25T00:31:18.495Z,41.70
2022-10-25T00:33:46.379Z,35.03
2022-10-25T00:36:24.778Z,29.80
2022-10-25T00:38:53.460Z,19.83
2022-10-25T00:41:27.559Z,37.57
2022-10-25T00:44:16.784Z,33.83
2022-10-25T00:46:45.650Z,30.10
2022-10-25T00:49:20.410Z,27.47
2022-10-25T00:51:58.108Z,23.53
2022-10-25T00:54:34.238Z,17.50
2022-10-25T00:57:14.973Z,20.60
2022-10-25T00:59:44.047Z,18.93
2022-10-25T01:02:12.813Z,18.10
2022-10-25T01:04:41.273Z,23.77
2022-10-25T01:07:08.726Z,18.87
2022-10-25T01:09:38.439Z,15.33
2022-10-25T01:12:06.307Z,15.37
2022-10-25T01:14:43.315Z,16.07
2022-10-25T01:17:19.982Z,17.13
2022-10-25T01:20:11.071Z,16.93
2022-10-25T01:22:56.815Z,16.33
2022-10-25T01:26:08.803Z,18.40
2022-10-25T01:29:17.183Z,18.20
2022-10-25T01:32:32.664Z,17.50
2022-10-25T01:35:53.351Z,17.97
2022-10-25T01:38:33.070Z,17.10
2022-10-25T01:41:50.126Z,18.93
2022-10-25T01:45:03.044Z,19.30
2022-10-25T01:47:39.743Z,15.30
2022-10-25T01:50:25.323Z,13.77
2022-10-25T01:55:24.921Z,15.97
2022-10-25T01:58:00.349Z,16.17
2022-10-25T02:00:28.699Z,15.57
2022-10-25T02:03:21.450Z,15.60
2022-10-25T02:06:24.010Z,15.13
2022-10-25T02:09:03.156Z,16.73
2022-10-25T02:11:32.889Z,15.33
2022-10-25T02:14:26.524Z,16.17
2022-10-25T02:17:02.431Z,15.83
2022-10-25T02:19:59.640Z,17.73
2022-10-25T02:22:31.107Z,19.13
2022-10-25T02:24:59.241Z,18.73
2022-10-25T02:27:27.253Z,18.30
2022-10-25T02:29:55.544Z,18.53
2022-10-25T02:32:23.319Z,18.43
2022-10-25T02:34:51.321Z,18.90
2022-10-25T02:37:19.262Z,17.43
2022-10-25T02:39:46.907Z,15.70
2022-10-25T02:42:14.361Z,17.10
2022-10-25T02:44:41.756Z,18.30
2022-10-25T02:47:09.341Z,17.47
2022-10-25T02:49:36.779Z,16.93
2022-10-25T02:52:04.361Z,16.07
2022-10-25T02:54:31.820Z,16.40
2022-10-25T02:56:59.202Z,16.07
2022-10-25T02:59:26.751Z,15.23
2022-10-25T03:01:54.315Z,14.63
2022-10-25T03:04:21.898Z,15.20
2022-10-25T03:06:49.403Z,14.97
2022-10-25T03:09:16.842Z,14.07
2022-10-25T03:11:44.311Z,14.03
2022-10-25T03:14:11.716Z,15.10
2022-10-25T03:16:39.181Z,14.93
2022-10-25T03:19:06.637Z,14.10
2022-10-25T03:21:36.596Z,14.50
2022-10-25T03:24:07.390Z,14.10
2022-10-25T03:26:34.803Z,13.57
2022-10-25T03:29:02.223Z,13.90
2022-10-25T03:31:29.802Z,14.20
2022-10-25T03:33:57.267Z,14.67
2022-10-25T03:36:24.661Z,14.60
2022-10-25T03:38:52.090Z,13.60
2022-10-25T03:41:19.614Z,13.20
2022-10-25T03:43:46.979Z,13.50
2022-10-25T03:46:14.430Z,12.70
2022-10-25T03:48:41.879Z,12.83
2022-10-25T03:51:09.473Z,11.67
2022-10-25T03:53:36.898Z,13.60
2022-10-25T03:56:04.583Z,12.20
2022-10-25T03:58:32.094Z,12.67
2022-10-25T04:01:00.021Z,12.10
2022-10-25T04:03:27.535Z,12.23
2022-10-25T04:05:54.916Z,12.07
2022-10-25T04:08:22.443Z,11.87
2022-10-25T04:10:49.804Z,10.70
2022-10-25T04:13:17.298Z,12.00
2022-10-25T04:15:44.820Z,12.20
2022-10-25T04:18:12.205Z,10.77
2022-10-25T04:20:39.675Z,10.23
2022-10-25T04:23:07.114Z,10.43
2022-10-25T04:25:34.694Z,11.27
2022-10-25T04:28:02.299Z,10.97
2022-10-25T04:30:29.877Z,11.03
2022-10-25T04:32:59.942Z,11.80
2022-10-25T04:35:27.453Z,11.10
2022-10-25T04:37:58.374Z,11.13
2022-10-25T04:40:26.070Z,10.63
2022-10-25T04:42:53.472Z,10.93
2022-10-25T04:45:20.978Z,12.10
2022-10-25T04:47:48.647Z,10.77
2022-10-25T04:50:16.231Z,11.30
2022-10-25T04:52:43.828Z,10.87
2022-10-25T04:55:11.534Z,10.33
2022-10-25T04:57:38.944Z,9.87
2022-10-25T05:00:06.933Z,9.53
2022-10-25T05:02:34.381Z,18.50
2022-10-25T05:05:01.902Z,28.53
2022-10-25T05:07:29.300Z,44.27
2022-10-25T05:09:56.738Z,42.60
2022-10-25T05:12:24.634Z,40.03
2022-10-25T05:14:52.188Z,34.40
2022-10-25T05:17:19.641Z,32.80
2022-10-25T05:19:48.522Z,36.23
2022-10-25T05:22:15.903Z,31.73
2022-10-25T05:24:43.374Z,36.17
2022-10-25T05:27:10.794Z,39.37
2022-10-25T05:29:38.383Z,33.13
2022-10-25T05:32:06.047Z,37.50
2022-10-25T05:34:33.670Z,49.83
2022-10-25T05:37:01.200Z,34.37
2022-10-25T05:39:28.611Z,30.67
2022-10-25T05:41:56.065Z,30.80
2022-10-25T05:44:23.543Z,31.37
2022-10-25T05:46:51.818Z,30.97
2022-10-25T05:49:19.504Z,26.27
2022-10-25T05:51:46.907Z,28.27
2022-10-25T05:54:16.214Z,28.27
2022-10-25T05:56:44.170Z,25.90
2022-10-25T05:59:14.531Z,26.77
2022-10-25T06:01:45.775Z,25.53
2022-10-25T06:04:14.991Z,23.47
2022-10-25T06:06:44.985Z,20.50
2022-10-25T06:09:13.511Z,11.13
2022-10-25T06:11:41.518Z,11.83
2022-10-25T06:14:10.881Z,15.60
2022-10-25T06:16:38.685Z,13.93
2022-10-25T06:19:06.618Z,10.57
2022-10-25T06:21:34.120Z,10.30
2022-10-25T06:24:01.593Z,16.10
2022-10-25T06:26:30.865Z,15.63
2022-10-25T06:29:03.210Z,17.33
2022-10-25T06:31:33.723Z,15.33
2022-10-25T06:34:02.362Z,14.93
2022-10-25T06:36:31.406Z,14.80
2022-10-25T06:39:05.808Z,18.17
2022-10-25T06:41:36.875Z,11.47
2022-10-25T06:44:07.137Z,9.17
2022-10-25T06:47:04.350Z,7.47
2022-10-25T06:49:26.439Z,6.60
2022-10-25T06:51:54.099Z,6.13
2022-10-25T06:54:21.526Z,6.97
2022-10-25T06:56:48.936Z,7.17
2022-10-25T06:59:16.432Z,6.57
2022-10-25T07:01:44.225Z,6.90
2022-10-25T07:04:11.778Z,7.20
2022-10-25T07:06:39.745Z,7.90
2022-10-25T07:09:09.399Z,8.57
2022-10-25T07:11:37.402Z,11.13
2022-10-25T07:14:04.984Z,10.93
2022-10-25T07:16:32.761Z,10.47
2022-10-25T07:19:04.674Z,9.53
2022-10-25T07:21:33.754Z,11.97
2022-10-25T07:24:01.403Z,12.17
2022-10-25T07:26:32.470Z,9.43
2022-10-25T07:29:02.766Z,11.03
2022-10-25T07:31:34.768Z,10.97
2022-10-25T07:34:04.997Z,10.93
2022-10-25T07:36:32.681Z,9.17
2022-10-25T07:39:00.835Z,9.53
2022-10-25T07:41:31.340Z,10.13
2022-10-25T07:43:58.862Z,10.13
2022-10-25T07:46:26.502Z,11.13
2022-10-25T07:48:54.043Z,10.60
2022-10-25T07:51:21.579Z,11.10
2022-10-25T07:53:49.956Z,10.50
2022-10-25T07:56:23.248Z,10.67
2022-10-25T07:58:54.397Z,10.07
2022-10-25T08:01:28.585Z,9.97
2022-10-25T08:03:57.065Z,9.93
2022-10-25T08:06:26.031Z,8.63
2022-10-25T08:08:53.664Z,8.17
2022-10-25T08:11:21.222Z,8.30
2022-10-25T08:13:50.752Z,7.57
2022-10-25T08:16:18.768Z,7.80
2022-10-25T08:18:46.292Z,8.70
2022-10-25T08:21:14.684Z,7.87
2022-10-25T08:23:42.140Z,8.30
2022-10-25T08:26:09.736Z,8.27
2022-10-25T08:28:37.117Z,9.10
2022-10-25T08:31:04.823Z,8.40
2022-10-25T08:33:33.890Z,8.43
2022-10-25T08:36:03.077Z,8.50
2022-10-25T08:38:31.007Z,8.00
2022-10-25T08:41:29.953Z,8.53
2022-10-25T08:45:04.099Z,8.13
2022-10-25T08:47:43.375Z,8.23
2022-10-25T08:50:33.246Z,8.67
2022-10-25T08:53:05.979Z,8.80
2022-10-25T08:55:44.489Z,8.80
2022-10-25T08:58:58.267Z,9.33
2022-10-25T09:01:41.350Z,10.87
2022-10-25T09:04:09.751Z,11.73
2022-10-25T09:07:18.243Z,13.95
2022-10-25T09:10:23.463Z,13.65
2022-10-25T09:13:10.525Z,12.77
2022-10-25T09:15:54.748Z,11.82
2022-10-25T09:18:36.703Z,12.82
2022-10-25T09:21:31.761Z,9.68
2022-10-25T09:24:12.327Z,7.57
2022-10-25T09:26:44.540Z,8.27
2022-10-25T09:29:24.493Z,9.45
2022-10-25T09:31:59.378Z,8.55
2022-10-25T09:34:35.641Z,7.35
2022-10-25T09:37:27.104Z,6.30
2022-10-25T09:40:05.023Z,6.80
2022-10-25T09:42:44.606Z,5.65
2022-10-25T09:45:29.237Z,5.70
2022-10-25T09:48:36.468Z,5.60
2022-10-25T09:51:08.128Z,5.68
2022-10-25T09:53:40.775Z,5.85
2022-10-25T09:56:08.729Z,5.75
2022-10-25T09:58:44.975Z,5.38
2022-10-25T10:01:19.108Z,5.28
2022-10-25T10:03:50.227Z,5.32
2022-10-25T10:06:35.982Z,5.20
2022-10-25T10:09:10.810Z,5.43
2022-10-25T10:11:38.615Z,5.25
2022-10-25T10:14:36.546Z,5.60
2022-10-25T10:17:08.088Z,4.53
2022-10-25T10:19:35.521Z,4.68
2022-10-25T10:22:09.801Z,5.05
2022-10-25T10:24:43.593Z,4.75
2022-10-25T10:27:32.705Z,5.32
2022-10-25T10:30:07.459Z,5.70
2022-10-25T10:35:28.591Z,5.30
2022-10-25T10:38:23.066Z,5.07
2022-10-25T10:41:11.904Z,5.28
2022-10-25T10:43:39.367Z,4.90
2022-10-25T10:46:19.922Z,5.43
2022-10-25T10:48:56.082Z,5.00
2022-10-25T10:51:43.978Z,5.10
2022-10-25T10:54:31.362Z,4.90
2022-10-25T10:57:03.288Z,4.32
2022-10-25T10:59:56.620Z,4.90
2022-10-25T11:02:42.803Z,4.80
2022-10-25T11:05:33.924Z,3.92
2022-10-25T11:08:03.539Z,4.68
2022-10-25T11:10:41.849Z,4.85
2022-10-25T11:13:20.768Z,5.57
2022-10-25T11:16:10.155Z,5.45
2022-10-25T11:18:46.091Z,4.07
2022-10-25T11:21:29.131Z,4.50
2022-10-25T11:24:11.215Z,4.40
2022-10-25T11:27:28.077Z,3.97
2022-10-25T11:30:20.453Z,4.40
2022-10-25T11:33:12.765Z,4.55
2022-10-25T11:36:27.439Z,4.68
2022-10-25T11:39:13.053Z,3.90
2022-10-25T11:41:53.770Z,5.13
2022-10-25T11:44:54.715Z,3.90
2022-10-25T11:47:57.882Z,4.65
2022-10-25T11:51:17.317Z,4.63
2022-10-25T11:53:47.320Z,4.97
2022-10-25T11:56:42.002Z,4.10
2022-10-25T11:59:45.588Z,4.88
2022-10-25T12:02:57.479Z,4.70
2022-10-25T12:05:57.232Z,6.03
2022-10-25T12:08:50.727Z,4.13
2022-10-25T12:11:28.574Z,5.40
2022-10-25T12:14:09.380Z,4.82
2022-10-25T12:16:38.335Z,4.95
2022-10-25T12:19:19.475Z,4.50
2022-10-25T12:22:01.936Z,4.65
2022-10-25T12:24:44.547Z,4.43
2022-10-25T12:27:13.379Z,4.82
2022-10-25T12:29:48.276Z,4.13
2022-10-25T12:32:23.646Z,4.90
2022-10-25T12:34:54.354Z,5.03
2022-10-25T12:37:31.588Z,4.40
2022-10-25T12:39:59.304Z,5.00
2022-10-25T12:42:44.603Z,4.40
2022-10-25T12:45:45.965Z,5.57
2022-10-25T12:49:09.370Z,4.80
2022-10-25T12:52:00.885Z,4.45
2022-10-25T12:54:55.959Z,4.90
2022-10-25T12:57:26.583Z,4.70
2022-10-25T13:00:09.914Z,4.38
2022-10-25T13:03:18.563Z,4.90
2022-10-25T13:06:45.082Z,4.63
2022-10-25T13:09:21.027Z,5.40
2022-10-25T13:12:07.849Z,5.60
2022-10-25T13:14:53.800Z,4.72
2022-10-25T13:17:21.217Z,5.13
2022-10-25T13:19:54.606Z,5.05
2022-10-25T13:22:35.998Z,5.13
2022-10-25T13:25:08.801Z,5.07
2022-10-25T13:27:37.095Z,5.00
2022-10-25T13:30:04.745Z,5.60
2022-10-25T13:32:43.568Z,5.22
2022-10-25T13:35:22.806Z,5.07
2022-10-25T13:38:09.606Z,5.25
2022-10-25T13:40:38.603Z,5.50
2022-10-25T13:43:20.879Z,5.03
2022-10-25T13:45:55.703Z,4.90
2022-10-25T13:48:37.245Z,4.47
2022-10-25T13:51:13.006Z,4.60
2022-10-25T13:53:52.632Z,5.75
2022-10-25T13:56:23.917Z,4.82
2022-10-25T13:58:56.561Z,5.15
2022-10-25T14:01:27.077Z,5.53
2022-10-25T14:04:18.318Z,5.20
2022-10-25T14:06:45.885Z,5.63
2022-10-25T14:09:34.352Z,5.82
2022-10-25T14:12:01.764Z,6.25
2022-10-25T14:14:48.080Z,5.50
2022-10-25T14:17:42.092Z,6.25
2022-10-25T14:20:30.930Z,5.78
2022-10-25T14:23:03.339Z,5.50
2022-10-25T14:25:38.315Z,5.38
2022-10-25T14:28:21.229Z,5.55
2022-10-25T14:31:01.132Z,5.47
2022-10-25T14:33:45.980Z,5.40
2022-10-25T14:36:36.993Z,5.78
2022-10-25T14:39:19.880Z,5.70
2022-10-25T14:41:57.416Z,5.60
2022-10-25T14:44:29.649Z,6.05
2022-10-25T14:46:59.743Z,5.70
2022-10-25T14:49:28.812Z,5.72
2022-10-25T14:52:07.298Z,5.38
2022-10-25T14:54:36.027Z,5.25
2022-10-25T14:57:06.970Z,6.43
2022-10-25T14:59:42.717Z,5.85
2022-10-25T15:02:41.195Z,6.97
2022-10-25T15:05:20.816Z,5.88
2022-10-25T15:07:54.003Z,6.35
2022-10-25T15:11:00.728Z,6.43
2022-10-25T15:13:43.856Z,5.90
2022-10-25T15:16:44.162Z,5.85
2022-10-25T15:19:19.340Z,5.90
2022-10-25T15:21:50.541Z,6.20
2022-10-25T15:24:23.317Z,6.13
2022-10-25T15:27:02.043Z,7.30
2022-10-25T15:32:26.444Z,6.45
2022-10-25T15:35:01.099Z,7.70
2022-10-25T15:37:30.599Z,10.25
2022-10-25T15:39:58.284Z,9.77
2022-10-25T15:42:27.100Z,8.60
2022-10-25T15:44:56.086Z,6.82
2022-10-25T15:47:32.972Z,8.18
2022-10-25T15:50:04.187Z,7.35
2022-10-25T15:52:31.627Z,6.25
2022-10-25T15:54:59.126Z,6.63
2022-10-25T15:57:27.443Z,6.50
2022-10-25T15:59:55.052Z,5.57
2022-10-25T16:02:28.488Z,6.68
2022-10-25T16:04:56.087Z,6.82
2022-10-25T16:07:23.685Z,6.10
2022-10-25T16:09:51.135Z,6.55
2022-10-25T16:12:30.789Z,5.97
2022-10-25T16:14:58.511Z,7.03
2022-10-25T16:17:26.507Z,7.50
2022-10-25T16:19:53.934Z,7.40
2022-10-25T16:22:21.379Z,7.47
2022-10-25T16:24:50.035Z,7.43
2022-10-25T16:27:17.438Z,7.60
2022-10-25T16:29:47.030Z,9.95
2022-10-25T16:32:14.550Z,10.98
2022-10-25T16:34:46.000Z,12.93
2022-10-25T16:37:13.433Z,13.70
2022-10-25T16:39:40.931Z,18.35
2022-10-25T16:42:28.299Z,14.38
2022-10-25T16:44:57.047Z,13.07
2022-10-25T16:47:24.745Z,11.40
2022-10-25T16:49:52.307Z,10.20
2022-10-25T16:52:20.642Z,14.00
2022-10-25T16:54:49.173Z,53.50
2022-10-25T16:57:16.898Z,33.03
2022-10-25T16:59:44.524Z,28.65
2022-10-25T17:02:24.879Z,31.20
2022-10-25T17:04:53.701Z,45.53
2022-10-25T17:07:21.181Z,28.95
2022-10-25T17:09:48.728Z,22.08
2022-10-25T17:12:16.139Z,17.92
2022-10-25T17:14:44.008Z,15.18
2022-10-25T17:17:11.678Z,15.27
2022-10-25T17:19:39.170Z,15.02
2022-10-25T17:22:07.355Z,15.15
2022-10-25T17:24:37.902Z,13.05
2022-10-25T17:27:06.795Z,12.35
2022-10-25T17:29:35.498Z,10.82
2022-10-25T17:32:04.948Z,10.75
2022-10-25T17:34:32.996Z,10.27
2022-10-25T17:37:02.329Z,8.60
2022-10-25T17:39:31.516Z,9.75
2022-10-25T17:41:59.075Z,10.25
2022-10-25T17:44:26.636Z,10.10
2022-10-25T17:46:56.441Z,9.88
2022-10-25T17:49:27.099Z,9.00
2022-10-25T17:51:54.637Z,10.98
2022-10-25T17:54:22.150Z,11.90
2022-10-25T17:56:49.742Z,11.98
2022-10-25T17:59:17.355Z,11.52
2022-10-25T18:01:49.131Z,12.00
2022-10-25T18:04:16.978Z,11.43
2022-10-25T18:06:45.830Z,19.20
2022-10-25T18:09:19.297Z,45.67
2022-10-25T18:11:49.743Z,24.30
2022-10-25T18:14:20.083Z,17.77
2022-10-25T18:16:48.034Z,48.40
2022-10-25T18:19:20.043Z,79.83
2022-10-25T18:21:47.806Z,66.83
2022-10-25T18:24:15.557Z,40.13
2022-10-25T18:26:48.639Z,24.23
2022-10-25T18:29:18.078Z,15.93
2022-10-25T18:31:45.756Z,11.17
2022-10-25T18:34:14.496Z,11.10
2022-10-25T18:36:43.681Z,10.20
2022-10-25T18:39:13.590Z,8.57
2022-10-25T18:41:42.634Z,8.47
2022-10-25T18:44:15.157Z,8.40
2022-10-25T18:46:44.014Z,7.77
2022-10-25T18:49:16.504Z,7.40
2022-10-25T18:51:44.999Z,6.83
2022-10-25T18:54:12.864Z,8.23
2022-10-25T18:56:41.923Z,8.37
2022-10-25T18:59:10.824Z,7.40
2022-10-25T19:01:39.918Z,8.27
2022-10-25T19:04:07.655Z,7.47
2022-10-25T19:06:36.428Z,6.63
2022-10-25T19:09:04.839Z,7.00
2022-10-25T19:11:33.937Z,7.43
2022-10-25T19:14:03.242Z,7.20
2022-10-25T19:16:30.866Z,6.83
2022-10-25T19:19:04.627Z,6.87
2022-10-25T19:21:32.309Z,6.63
2022-10-25T19:24:00.039Z,7.37
2022-10-25T19:26:27.674Z,8.60
2022-10-25T19:29:00.348Z,7.50
2022-10-25T19:31:29.618Z,7.20
2022-10-25T19:34:00.627Z,7.60
2022-10-25T19:36:28.616Z,9.63
2022-10-25T19:38:56.449Z,8.63
2022-10-25T19:41:26.025Z,9.20
2022-10-25T19:43:56.595Z,8.70
2022-10-25T19:46:24.362Z,8.80
2022-10-25T19:48:51.907Z,8.87
2022-10-25T19:51:21.164Z,8.77
2022-10-25T19:53:50.385Z,7.87
2022-10-25T19:56:21.375Z,7.87
2022-10-25T19:58:50.598Z,9.73
2022-10-25T20:01:25.210Z,15.13
2022-10-25T20:03:57.954Z,9.03
2022-10-25T20:06:32.083Z,8.07
2022-10-25T20:09:01.442Z,7.50
2022-10-25T20:11:29.665Z,7.13
2022-10-25T20:14:01.883Z,6.37
2022-10-25T20:16:32.268Z,5.20
2022-10-25T20:19:02.227Z,5.63
2022-10-25T20:21:35.990Z,6.27
2022-10-25T20:24:08.166Z,7.10
2022-10-25T20:26:41.261Z,7.03
2022-10-25T20:29:21.078Z,8.30
2022-10-25T20:31:51.180Z,7.50
2022-10-25T20:34:20.137Z,9.30
2022-10-25T20:36:48.991Z,9.10
2022-10-25T20:39:16.590Z,9.47
2022-10-25T20:41:44.258Z,8.90
2022-10-25T20:44:12.143Z,9.97
2022-10-25T20:46:39.693Z,9.07
2022-10-25T20:49:07.549Z,8.30
2022-10-25T20:51:35.451Z,8.23
2022-10-25T20:54:09.335Z,7.80
2022-10-25T20:56:37.388Z,8.00
2022-10-25T20:59:05.331Z,8.27
2022-10-25T21:01:33.204Z,7.20
2022-10-25T21:04:00.800Z,7.23
2022-10-25T21:06:28.310Z,6.90
2022-10-25T21:08:55.794Z,7.17
2022-10-25T21:11:23.265Z,6.50
2022-10-25T21:13:50.927Z,5.80
2022-10-25T21:16:18.489Z,5.80
2022-10-25T21:18:45.947Z,6.17
2022-10-25T21:21:19.041Z,8.00
2022-10-25T21:23:56.599Z,7.00
2022-10-25T21:26:24.756Z,7.50
2022-10-25T21:28:52.260Z,6.77
2022-10-25T21:31:20.290Z,6.20
2022-10-25T21:33:50.218Z,6.30
2022-10-25T21:36:20.242Z,5.77
2022-10-25T21:38:48.001Z,6.37
2022-10-25T21:41:26.702Z,6.17
2022-10-25T21:43:55.711Z,5.87
2022-10-25T21:46:24.830Z,6.50
2022-10-25T21:48:52.519Z,6.33
2022-10-25T21:51:21.936Z,5.57
2022-10-25T21:53:49.519Z,5.73
2022-10-25T21:56:20.146Z,5.60
2022-10-25T21:58:51.445Z,5.43
2022-10-25T22:01:24.903Z,6.03
2022-10-25T22:03:55.660Z,8.90
2022-10-25T22:06:25.402Z,55.43
2022-10-25T22:08:55.574Z,233.70
2022-10-25T22:11:27.014Z,383.77
2022-10-25T22:14:00.179Z,343.57
2022-10-25T22:16:28.487Z,505.83
2022-10-25T22:19:05.531Z,451.30
2022-10-25T22:21:37.665Z,170.23
2022-10-25T22:24:08.501Z,93.87
2022-10-25T22:26:39.243Z,57.80
2022-10-25T22:29:07.538Z,16.60
2022-10-25T22:31:35.343Z,9.70
2022-10-25T22:34:05.934Z,13.97
2022-10-25T22:36:37.302Z,10.70
2022-10-25T22:39:06.363Z,10.27
2022-10-25T22:41:34.797Z,9.37
2022-10-25T22:44:02.803Z,11.07
2022-10-25T22:46:35.537Z,20.03
2022-10-25T22:49:09.103Z,14.03
2022-10-25T22:51:38.151Z,12.23
2022-10-25T22:54:06.112Z,12.43
2022-10-25T22:56:34.380Z,12.47
2022-10-25T22:59:05.142Z,11.97
2022-10-25T23:01:36.394Z,10.37
2022-10-25T23:04:07.923Z,10.57
2022-10-25T23:06:38.732Z,8.80
2022-10-25T23:09:09.693Z,9.50
2022-10-25T23:11:40.387Z,10.13
2022-10-25T23:14:13.440Z,9.93
2022-10-25T23:16:44.507Z,10.60
2022-10-25T23:19:11.940Z,8.63
2022-10-25T23:21:39.361Z,8.87
2022-10-25T23:24:07.076Z,7.67
2022-10-25T23:26:36.660Z,7.50
2022-10-25T23:29:05.184Z,7.70
2022-10-25T23:31:33.074Z,8.03
2022-10-25T23:34:01.393Z,7.27
2022-10-25T23:36:37.750Z,7.17
2022-10-25T23:39:08.048Z,6.57
2022-10-25T23:41:35.861Z,7.50
2022-10-25T23:44:03.927Z,7.17
2022-10-25T23:46:31.443Z,7.50
2022-10-25T23:48:59.021Z,8.03
2022-10-25T23:51:26.619Z,8.10
2022-10-25T23:53:54.070Z,8.73
2022-10-25T23:56:21.617Z,9.20
2022-10-25T23:58:53.677Z,9.57
